Time;durP1;ratioP1;P1;durP2;ratioP2;P2;SDS_P1;SDS_P2;PMS_P1;PMS_P2;Temp;Humidity;BMP_temperature;BMP_pressure;BME280_temperature;BME280_humidity;BME280_pressure;Samples;Min_cycle;Max_cycle;Signal;HPM_P1;HPM_P2
2022/02/02 00:00:15;;;;;;;8.70;2.67;;;;;;;7.62;65.99;97273.88;8416781;28;20245;-78
2022/02/02 00:04:24;;;;;;;5.00;2.00;;;;;;;7.82;65.92;97262.69;8415870;28;20257;-78
2022/02/02 00:08:36;;;;;;;7.60;2.33;;;;;;;7.76;65.83;97257.78;8415292;28;20604;-80
2022/02/02 00:12:44;;;;;;;6.17;2.20;;;;;;;7.71;66.72;97244.28;8412447;28;20219;-80
2022/02/02 00:16:52;;;;;;;5.20;2.13;;;;;;;7.68;67.31;97248.75;8412844;28;20538;-81
2022/02/02 00:20:58;;;;;;;7.20;2.13;;;;;;;7.75;67.27;97255.28;8412755;28;20231;-80
2022/02/02 00:25:11;;;;;;;5.70;2.57;;;;;;;7.78;66.63;97250.00;8412483;28;20238;-80
2022/02/02 00:29:18;;;;;;;12.00;3.27;;;;;;;7.92;66.34;97250.22;8413075;28;20231;-80
2022/02/02 00:33:24;;;;;;;6.50;2.50;;;;;;;7.96;66.53;97267.22;8418923;28;20233;-79
2022/02/02 00:37:32;;;;;;;8.33;3.00;;;;;;;7.96;67.33;97251.75;8418205;28;20219;-80
2022/02/02 00:41:37;;;;;;;9.40;3.17;;;;;;;7.85;66.96;97240.25;8418438;28;20237;-80
2022/02/02 00:45:44;;;;;;;10.27;3.10;;;;;;;7.91;66.80;97248.53;8418085;28;20241;-80
2022/02/02 00:49:48;;;;;;;17.03;3.60;;;;;;;7.66;66.63;97253.13;8417802;28;20241;-80
2022/02/02 00:53:51;;;;;;;10.23;3.10;;;;;;;7.89;66.46;97255.50;8417894;28;20542;-80
2022/02/02 00:57:56;;;;;;;11.50;3.00;;;;;;;8.00;66.15;97273.91;8417987;28;20230;-80
2022/02/02 01:01:59;;;;;;;11.00;3.27;;;;;;;7.97;66.39;97274.03;8417514;28;20230;-80
2022/02/02 01:06:03;;;;;;;10.30;2.93;;;;;;;8.02;65.26;97274.69;8417676;28;20238;-80
2022/02/02 01:10:14;;;;;;;8.27;2.40;;;;;;;8.00;65.72;97294.53;8417548;28;20273;-80
2022/02/02 01:18:48;;;;;;;6.70;2.40;;;;;;;8.20;65.00;97301.38;8416884;28;20222;-80
2022/02/02 01:31:30;;;;;;;9.63;2.70;;;;;;;8.09;65.97;97321.69;8415767;28;20247;-80
2022/02/02 01:35:33;;;;;;;7.50;3.07;;;;;;;8.24;65.73;97304.66;8416357;28;20418;-81
2022/02/02 01:39:37;;;;;;;11.03;3.23;;;;;;;8.13;65.94;97323.22;8416721;28;20233;-80
2022/02/02 01:43:46;;;;;;;10.77;2.70;;;;;;;8.07;65.29;97332.94;8417009;28;20238;-80
2022/02/02 01:48:03;;;;;;;11.47;3.13;;;;;;;8.01;64.43;97339.22;8418086;28;20542;-80
2022/02/02 01:53:00;;;;;;;12.70;3.30;;;;;;;7.93;63.94;97342.13;8418295;28;20236;-80
2022/02/02 01:57:07;;;;;;;10.77;3.00;;;;;;;7.90;63.87;97331.97;8416900;28;20233;-80
2022/02/02 02:01:11;;;;;;;13.37;3.87;;;;;;;8.10;63.10;97325.09;8415727;28;20230;-80
2022/02/02 02:05:15;;;;;;;10.63;3.37;;;;;;;8.18;63.08;97321.25;8415543;28;20545;-80
2022/02/02 02:09:19;;;;;;;14.03;3.60;;;;;;;8.00;62.92;97329.81;8415972;28;20234;-80
2022/02/02 02:13:54;;;;;;;12.70;3.23;;;;;;;8.17;62.89;97329.06;8415955;28;20227;-80
2022/02/02 02:17:57;;;;;;;11.43;3.60;;;;;;;8.11;62.53;97325.03;8415174;28;20230;-80
2022/02/02 02:22:02;;;;;;;11.93;3.47;;;;;;;8.06;62.55;97345.00;8415325;28;20398;-80
2022/02/02 02:26:07;;;;;;;11.57;3.67;;;;;;;7.95;62.98;97334.34;8414872;28;20560;-80
2022/02/02 02:30:18;;;;;;;13.33;3.43;;;;;;;7.94;63.41;97343.81;8414712;28;20234;-80
2022/02/02 02:34:37;;;;;;;13.47;3.80;;;;;;;8.07;63.54;97333.78;8414540;28;20227;-80
2022/02/02 02:56:05;;;;;;;14.23;4.10;;;;;;;8.30;61.24;97325.03;8413930;28;20235;-79
2022/02/02 03:00:30;;;;;;;14.83;4.13;;;;;;;8.25;61.03;97323.56;8414308;28;20235;-79
2022/02/02 03:30:47;;;;;;;14.60;4.60;;;;;;;8.32;61.84;97336.13;8413592;28;20253;-79
2022/02/02 03:35:08;;;;;;;21.50;4.83;;;;;;;8.28;62.10;97308.78;8413946;28;20226;-79
2022/02/02 03:57:32;;;;;;;14.57;4.43;;;;;;;8.41;61.43;97296.13;8378954;27;20578;-66
2022/02/02 04:01:51;;;;;;;20.90;5.23;;;;;;;8.30;61.66;97306.97;8368469;28;20228;-66
2022/02/02 04:06:03;;;;;;;21.77;5.53;;;;;;;8.25;62.23;97308.91;8376573;28;20418;-66
2022/02/02 04:10:07;;;;;;;18.93;4.57;;;;;;;8.30;62.26;97324.19;8376305;28;20232;-66
2022/02/02 04:58:25;;;;;;;28.17;6.93;;;;;;;8.07;60.78;97379.38;8367633;28;20535;-66
2022/02/02 05:06:51;;;;;;;28.17;6.67;;;;;;;8.26;60.03;97394.88;8362690;28;20235;-66
2022/02/02 05:11:13;;;;;;;24.13;5.77;;;;;;;8.19;60.11;97390.00;8352785;28;20228;-66
2022/02/02 05:20:12;;;;;;;26.70;6.40;;;;;;;8.37;59.34;97406.38;8339246;28;20228;-66
2022/02/02 05:42:20;;;;;;;19.80;5.93;;;;;;;8.31;58.68;97403.25;8351303;28;20228;-66
2022/02/02 05:50:43;;;;;;;17.33;5.43;;;;;;;8.34;57.76;97396.22;8351027;28;20306;-66
2022/02/02 05:54:51;;;;;;;25.73;6.23;;;;;;;8.27;57.45;97406.88;8349801;28;20431;-66
2022/02/02 05:58:57;;;;;;;23.50;6.13;;;;;;;8.15;58.49;97418.56;8350030;28;20441;-66
2022/02/02 06:03:02;;;;;;;20.93;5.73;;;;;;;8.25;58.72;97425.00;8347105;28;20227;-66
2022/02/02 06:07:05;;;;;;;24.67;6.37;;;;;;;8.07;59.52;97426.63;8350688;28;20236;-66
2022/02/02 06:11:09;;;;;;;21.07;5.70;;;;;;;7.91;60.53;97459.97;8349460;28;20239;-66
2022/02/02 06:15:17;;;;;;;26.03;6.50;;;;;;;8.11;61.72;97481.50;8348978;28;20228;-66
2022/02/02 06:19:22;;;;;;;25.37;6.20;;;;;;;8.01;61.58;97469.00;8348989;28;20557;-66
2022/02/02 06:23:30;;;;;;;23.17;6.30;;;;;;;8.00;62.40;97477.63;8350453;28;20239;-67
2022/02/02 06:27:36;;;;;;;27.27;6.00;;;;;;;8.11;61.49;97474.59;8341629;28;20255;-66
2022/02/02 06:31:42;;;;;;;27.37;6.50;;;;;;;8.09;61.01;97480.72;8349327;28;20239;-65
2022/02/02 06:35:46;;;;;;;25.47;6.80;;;;;;;7.97;60.86;97488.06;8348539;28;20239;-65
2022/02/02 06:39:51;;;;;;;24.97;6.20;;;;;;;8.18;60.04;97480.34;8349251;28;20236;-65
2022/02/02 06:43:54;;;;;;;27.10;6.17;;;;;;;8.10;59.56;97480.66;8349591;28;20239;-65
2022/02/02 06:48:00;;;;;;;22.93;5.83;;;;;;;8.07;59.43;97491.09;8348752;28;20282;-65
2022/02/02 06:52:12;;;;;;;20.23;6.57;;;;;;;8.17;58.98;97509.63;8348855;28;20224;-65
2022/02/02 06:56:32;;;;;;;18.97;5.50;;;;;;;8.17;58.52;97530.25;8349063;28;20267;-65
2022/02/02 07:00:45;;;;;;;29.87;6.37;;;;;;;8.11;58.56;97535.66;8348339;28;20248;-65
2022/02/02 07:09:39;;;;;;;20.43;5.43;;;;;;;8.43;57.60;97538.66;8346091;28;20235;-65
2022/02/02 07:13:55;;;;;;;24.53;6.07;;;;;;;8.37;58.15;97548.31;8348205;28;20235;-65
2022/02/02 07:18:17;;;;;;;17.87;5.57;;;;;;;8.32;58.31;97567.44;8348113;28;20236;-65
2022/02/02 07:22:45;;;;;;;24.90;5.80;;;;;;;8.37;58.42;97557.78;8348084;28;20422;-68
2022/02/02 07:27:26;;;;;;;19.00;5.63;;;;;;;8.33;58.48;97559.66;8347780;28;20519;-65
2022/02/02 07:31:42;;;;;;;19.53;5.87;;;;;;;8.49;58.03;97565.06;8347833;28;20549;-65
2022/02/02 07:35:59;;;;;;;21.53;5.83;;;;;;;8.55;59.18;97572.53;8347586;28;20232;-65
2022/02/02 07:40:07;;;;;;;20.20;5.57;;;;;;;8.59;59.56;97571.50;8347666;28;20252;-65
2022/02/02 07:44:15;;;;;;;22.07;6.00;;;;;;;8.64;59.78;97557.56;8347517;28;20228;-65
2022/02/02 07:48:18;;;;;;;24.30;5.57;;;;;;;8.64;59.98;97570.47;8347701;28;20236;-65
2022/02/02 07:52:27;;;;;;;28.40;6.47;;;;;;;8.68;60.11;97575.44;8347422;28;20408;-65
2022/02/02 07:56:40;;;;;;;24.07;6.20;;;;;;;8.53;60.50;97573.47;8347653;28;20240;-65
2022/02/02 08:00:43;;;;;;;25.80;5.80;;;;;;;8.37;60.71;97568.94;8347317;28;20227;-65
2022/02/02 08:04:45;;;;;;;25.63;5.93;;;;;;;8.58;60.25;97558.66;8347734;28;20335;-65
2022/02/02 08:08:50;;;;;;;25.83;6.73;;;;;;;8.39;60.77;97561.97;8347020;28;20261;-65
2022/02/02 08:13:01;;;;;;;29.43;6.57;;;;;;;8.52;60.35;97577.81;8347336;28;20244;-65
2022/02/02 08:17:04;;;;;;;22.13;6.40;;;;;;;8.82;60.94;97574.00;8347599;28;20236;-65
2022/02/02 08:21:08;;;;;;;27.27;6.80;;;;;;;8.70;58.68;97596.88;8347477;28;20231;-65
2022/02/02 08:25:18;;;;;;;22.63;6.57;;;;;;;8.57;58.69;97609.44;8347091;28;20235;-65
2022/02/02 08:29:23;;;;;;;25.37;6.70;;;;;;;8.43;59.61;97619.50;8346952;28;20424;-65
2022/02/02 08:33:33;;;;;;;21.90;5.77;;;;;;;8.69;58.60;97628.72;8347586;28;20590;-65
2022/02/02 08:37:38;;;;;;;21.20;5.93;;;;;;;8.66;58.61;97631.44;8346412;28;20240;-66
2022/02/02 08:41:46;;;;;;;21.40;5.50;;;;;;;8.63;57.65;97636.75;8349672;28;20232;-66
2022/02/02 08:45:51;;;;;;;25.10;6.20;;;;;;;8.63;58.02;97634.16;8352930;28;20239;-66
2022/02/02 08:49:57;;;;;;;24.10;5.67;;;;;;;9.16;62.34;97645.69;8352661;28;20407;-67
2022/02/02 08:54:11;;;;;;;21.93;5.73;;;;;;;11.16;60.65;97654.34;8352682;28;20254;-66
2022/02/02 08:58:24;;;;;;;20.33;5.20;;;;;;;9.92;55.64;97661.25;8352512;28;20232;-65
2022/02/02 09:02:32;;;;;;;20.13;5.47;;;;;;;9.35;55.58;97669.81;8352783;28;20557;-64
2022/02/02 09:06:35;;;;;;;16.13;4.83;;;;;;;9.18;56.39;97655.03;8351884;28;20232;-65
2022/02/02 09:23:58;;;;;;;15.37;5.30;;;;;;;9.65;56.75;97659.00;8351679;28;20227;-65
2022/02/02 09:36:46;;;;;;;8.87;3.90;;;;;;;11.59;52.49;97675.41;8347800;28;20236;-64
2022/02/02 09:41:28;;;;;;;13.67;4.40;;;;;;;11.81;50.34;97669.09;8351357;28;20234;-65
2022/02/02 09:45:31;;;;;;;11.27;3.40;;;;;;;10.60;52.57;97694.28;8351062;28;20240;-69
2022/02/02 09:49:42;;;;;;;13.57;3.80;;;;;;;10.72;51.71;97707.47;8351198;28;20242;-66
2022/02/02 09:53:55;;;;;;;11.30;3.83;;;;;;;10.95;52.39;97708.91;8349105;28;20251;-74
2022/02/02 09:58:21;;;;;;;11.27;4.17;;;;;;;11.88;50.18;97727.50;8351321;28;20232;-66
2022/02/02 10:02:34;;;;;;;10.90;4.03;;;;;;;12.37;48.88;97735.25;8330447;28;20235;-73
2022/02/02 10:06:52;;;;;;;12.87;4.10;;;;;;;12.73;48.03;97734.13;8350183;28;20271;-66
2022/02/02 10:11:23;;;;;;;12.10;4.20;;;;;;;13.15;46.03;97745.56;8350186;28;20243;-64
2022/02/02 10:15:32;;;;;;;13.83;3.90;;;;;;;13.17;46.04;97740.28;8350314;28;20247;-65
2022/02/02 10:19:37;;;;;;;15.07;4.50;;;;;;;13.02;45.53;97755.84;8349571;28;20224;-65
2022/02/02 10:23:41;;;;;;;15.47;4.43;;;;;;;12.97;44.95;97763.06;8349866;28;20232;-64
2022/02/02 10:27:46;;;;;;;16.57;4.80;;;;;;;13.21;44.46;97773.84;8349910;28;20245;-71
2022/02/02 10:31:51;;;;;;;13.73;4.30;;;;;;;12.16;46.09;97767.59;8349850;28;20260;-64
2022/02/02 10:35:58;;;;;;;13.93;4.20;;;;;;;11.70;45.89;97787.22;8349479;28;20559;-63
2022/02/02 10:40:03;;;;;;;15.53;4.00;;;;;;;11.43;46.86;97788.66;8349390;28;20234;-63
2022/02/02 10:44:21;;;;;;;11.23;3.47;;;;;;;11.19;46.61;97798.47;8349283;28;20232;-63
2022/02/02 10:48:35;;;;;;;13.13;3.80;;;;;;;11.17;45.96;97792.53;8349250;28;20295;-63
2022/02/02 10:52:43;;;;;;;11.07;3.70;;;;;;;11.19;47.18;97793.28;8348368;28;20236;-63
2022/02/02 10:56:52;;;;;;;12.87;4.00;;;;;;;11.63;44.21;97790.22;8348351;28;20240;-63
2022/02/02 11:01:10;;;;;;;12.57;3.37;;;;;;;11.60;44.02;97775.66;8348819;28;20232;-63
2022/02/02 11:09:46;;;;;;;15.87;3.90;;;;;;;11.23;44.22;97790.50;8348381;28;20243;-63
2022/02/02 11:13:54;;;;;;;13.63;4.10;;;;;;;11.59;45.02;97799.91;8348160;28;20232;-63
2022/02/02 11:18:05;;;;;;;11.10;3.40;;;;;;;11.42;44.82;97808.53;8348210;28;20240;-62
2022/02/02 11:22:30;;;;;;;11.37;3.90;;;;;;;11.49;44.37;97812.50;8348458;28;20231;-63
2022/02/02 11:26:40;;;;;;;11.03;3.53;;;;;;;11.63;44.53;97810.97;8347767;28;20231;-63
2022/02/02 11:30:43;;;;;;;9.80;3.20;;;;;;;11.55;44.37;97821.72;8348116;28;20232;-63
2022/02/02 11:34:49;;;;;;;12.00;3.97;;;;;;;12.00;43.85;97822.06;8347915;28;20238;-63
2022/02/02 11:38:56;;;;;;;9.87;3.17;;;;;;;11.72;44.73;97836.44;8347982;28;20236;-62
2022/02/02 11:43:05;;;;;;;8.60;2.93;;;;;;;11.56;44.28;97833.78;8347584;28;20224;-63
2022/02/02 11:47:19;;;;;;;9.70;3.27;;;;;;;11.30;44.60;97819.53;8347601;28;20429;-62
2022/02/02 11:56:07;;;;;;;7.60;2.80;;;;;;;11.23;45.22;97831.09;8485558;27;20325;-63
2022/02/02 12:00:17;;;;;;;8.80;2.50;;;;;;;11.34;44.25;97831.41;8476639;28;20237;-62
2022/02/02 12:04:28;;;;;;;9.33;2.73;;;;;;;11.88;44.46;97847.72;8476622;28;20566;-63
2022/02/02 12:08:42;;;;;;;9.30;2.97;;;;;;;11.58;44.14;97851.88;8475811;28;20225;-63
2022/02/02 12:48:47;;;;;;;11.43;2.90;;;;;;;10.73;45.70;97913.75;8475253;28;20243;-62
2022/02/02 12:57:14;;;;;;;8.33;3.03;;;;;;;11.32;44.35;97903.25;8475033;28;20233;-62
2022/02/02 13:01:20;;;;;;;10.90;3.20;;;;;;;11.02;44.26;97905.53;8475461;28;20241;-63
2022/02/02 13:05:24;;;;;;;13.50;3.00;;;;;;;10.87;44.12;97920.03;8462770;28;20230;-62
2022/02/02 13:09:28;;;;;;;11.90;2.80;;;;;;;10.68;44.57;97920.06;8451734;28;20234;-62
2022/02/02 13:13:31;;;;;;;9.47;3.00;;;;;;;10.50;43.96;97922.56;8451624;28;20229;-64
2022/02/02 13:17:53;;;;;;;8.30;2.60;;;;;;;10.77;43.66;97940.34;8451710;28;20234;-63
2022/02/02 13:22:05;;;;;;;7.50;2.60;;;;;;;11.44;42.19;97922.56;8451733;28;20232;-62
2022/02/02 13:26:15;;;;;;;9.13;2.93;;;;;;;10.80;42.32;97932.47;8451614;28;20233;-63
2022/02/02 13:30:39;;;;;;;6.33;2.07;;;;;;;10.91;41.92;97939.75;8451370;28;20238;-63
2022/02/02 13:34:49;;;;;;;7.03;2.43;;;;;;;10.35;42.28;97949.13;8444121;28;20414;-62
2022/02/02 13:43:38;;;;;;;8.47;2.20;;;;;;;10.91;41.92;97955.28;8450837;28;20245;-63
2022/02/02 13:48:02;;;;;;;7.30;2.27;;;;;;;10.96;43.53;97964.50;8443446;28;20233;-63
2022/02/02 13:52:26;;;;;;;9.13;2.90;;;;;;;10.48;45.37;97977.94;8430891;28;20230;-63
2022/02/02 14:01:16;;;;;;;10.07;3.27;;;;;;;10.39;46.16;97975.72;8445681;28;20241;-64
2022/02/02 14:05:41;;;;;;;8.80;2.80;;;;;;;10.61;45.97;97989.44;8416882;28;20234;-63
2022/02/02 14:10:00;;;;;;;8.23;2.70;;;;;;;10.66;45.77;97994.38;8416459;28;20250;-63
2022/02/02 14:31:37;;;;;;;11.50;2.77;;;;;;;10.32;47.19;98003.66;8367235;28;20225;-64
2022/02/02 14:36:02;;;;;;;7.10;2.10;;;;;;;10.47;46.73;98004.72;8434393;28;20634;-63
2022/02/02 14:40:15;;;;;;;6.50;2.50;;;;;;;10.79;45.71;98025.78;8434997;28;20249;-63
2022/02/02 14:44:24;;;;;;;5.10;2.30;;;;;;;10.76;45.72;98025.00;8431404;28;20227;-63
2022/02/02 14:48:53;;;;;;;9.30;2.47;;;;;;;11.22;43.82;98039.41;8431420;28;20425;-64
2022/02/02 14:53:11;;;;;;;8.93;2.57;;;;;;;10.40;45.05;98049.91;8430627;28;20461;-64
2022/02/02 15:24:11;;;;;;;8.33;1.97;;;;;;;9.93;45.13;98080.22;8431221;28;20219;-63
2022/02/02 15:28:16;;;;;;;8.43;2.40;;;;;;;9.78;44.97;98093.75;8429912;28;20233;-63
2022/02/02 15:32:19;;;;;;;8.67;2.10;;;;;;;9.33;46.10;98107.56;8430110;28;20421;-63
2022/02/02 15:40:49;;;;;;;7.57;2.27;;;;;;;9.66;45.79;98120.09;8428490;28;20222;-63
2022/02/02 15:58:13;;;;;;;5.57;1.80;;;;;;;8.80;48.32;98140.41;8447106;28;20234;-63
2022/02/02 16:02:18;;;;;;;5.47;1.73;;;;;;;8.52;49.27;98130.16;8447197;28;20559;-63
2022/02/02 16:06:24;;;;;;;6.73;1.90;;;;;;;8.45;49.58;98148.47;8447185;28;20416;-63
2022/02/02 16:10:40;;;;;;;8.57;1.93;;;;;;;8.35;50.32;98150.50;8446430;28;20225;-64
2022/02/02 16:14:48;;;;;;;7.50;2.37;;;;;;;8.47;50.46;98159.59;8442412;28;20218;-63
2022/02/02 16:18:57;;;;;;;7.50;2.27;;;;;;;8.52;50.84;98163.72;8428992;28;20415;-63
2022/02/02 16:31:59;;;;;;;8.23;2.23;;;;;;;8.71;51.14;98166.53;8435452;28;20547;-63
2022/02/02 16:36:08;;;;;;;8.57;2.70;;;;;;;8.65;51.05;98171.91;8427343;28;20226;-63
2022/02/02 16:40:15;;;;;;;8.00;2.30;;;;;;;8.78;50.48;98185.25;8433666;28;20234;-63
2022/02/02 16:44:18;;;;;;;12.23;4.20;;;;;;;8.27;51.37;98194.59;8435165;28;20245;-64
2022/02/02 16:48:24;;;;;;;7.93;2.77;;;;;;;8.41;51.22;98205.38;8434948;28;20230;-62
2022/02/02 16:52:30;;;;;;;7.60;2.40;;;;;;;8.45;50.72;98193.19;8437202;28;20419;-62
2022/02/02 16:56:44;;;;;;;8.30;2.60;;;;;;;8.48;50.97;98200.84;8433099;28;20409;-62
2022/02/02 17:31:50;;;;;;;8.03;3.03;;;;;;;9.12;49.39;98231.44;8409044;28;20374;-62
2022/02/02 17:36:08;;;;;;;11.17;3.20;;;;;;;9.18;49.52;98238.16;8417880;28;20242;-63
2022/02/02 17:40:17;;;;;;;10.27;4.40;;;;;;;9.11;49.14;98247.00;8426086;28;20409;-63
2022/02/02 17:44:48;;;;;;;12.60;3.80;;;;;;;9.30;49.13;98255.81;8432823;28;20226;-63
2022/02/02 18:19:44;;;;;;;13.47;6.23;;;;;;;9.06;50.52;98303.13;8415740;28;20229;-64
2022/02/02 18:23:54;;;;;;;11.43;5.60;;;;;;;9.08;51.02;98299.63;8416199;28;20293;-61
2022/02/02 18:28:05;;;;;;;15.77;5.87;;;;;;;9.05;51.13;98304.06;8416109;28;20227;-61
2022/02/02 18:32:27;;;;;;;13.73;5.37;;;;;;;9.04;51.55;98305.78;8416106;28;20242;-61
2022/02/02 18:36:44;;;;;;;13.40;5.80;;;;;;;8.85;51.84;98318.44;8415896;28;20234;-61
2022/02/02 18:45:32;;;;;;;17.53;6.10;;;;;;;8.79;52.19;98327.22;8397801;28;20232;-61
2022/02/02 18:49:53;;;;;;;15.40;5.73;;;;;;;8.69;52.58;98325.00;8448916;28;20225;-61
2022/02/02 18:54:10;;;;;;;15.83;5.50;;;;;;;8.73;52.43;98336.91;8448436;28;20560;-61
2022/02/02 18:58:27;;;;;;;19.57;4.07;;;;;;;10.72;76.79;98349.00;8442429;28;20541;-61
2022/02/02 19:07:25;;;;;;;17.30;5.70;;;;;;;10.64;49.85;98353.63;8423299;28;20232;-65
2022/02/02 19:38:11;;;;;;;19.17;7.37;;;;;;;9.02;51.94;98386.81;8405470;28;20231;-65
2022/02/02 19:55:34;;;;;;;17.20;7.27;;;;;;;8.87;52.31;98401.91;8447153;28;20561;-64
2022/02/02 20:04:30;;;;;;;13.30;5.73;;;;;;;8.77;52.95;98415.97;8446876;28;20226;-64
2022/02/02 20:08:41;;;;;;;16.00;6.70;;;;;;;8.66;53.13;98423.19;8446770;28;20422;-64
2022/02/02 20:12:49;;;;;;;15.70;6.23;;;;;;;8.64;52.74;98425.81;8446793;28;20226;-64
2022/02/02 20:16:53;;;;;;;15.10;5.90;;;;;;;8.56;53.06;98422.59;8452107;28;20241;-64
2022/02/02 20:21:00;;;;;;;13.60;5.00;;;;;;;8.57;52.81;98419.16;8453351;28;20237;-64
2022/02/02 20:25:04;;;;;;;12.17;4.90;;;;;;;8.55;52.57;98421.78;8441871;28;20229;-64
2022/02/02 20:29:07;;;;;;;15.37;5.87;;;;;;;8.50;52.86;98433.13;8453102;28;20237;-64
2022/02/02 20:33:12;;;;;;;17.47;5.93;;;;;;;8.42;53.12;98428.16;8429763;28;20231;-64
2022/02/02 20:37:18;;;;;;;17.63;6.07;;;;;;;8.46;53.21;98428.94;8419530;28;20235;-66
2022/02/02 20:41:21;;;;;;;17.10;5.80;;;;;;;8.41;53.30;98439.34;8443401;28;20229;-64
2022/02/02 20:45:57;;;;;;;15.90;5.77;;;;;;;8.30;53.47;98443.94;8435171;28;20227;-65
2022/02/02 21:03:18;;;;;;;15.60;5.03;;;;;;;8.18;53.51;98456.28;8353229;28;20234;-64
2022/02/02 21:07:34;;;;;;;16.70;5.17;;;;;;;8.21;53.72;98463.97;8422439;28;20546;-65
2022/02/02 21:11:54;;;;;;;20.17;8.90;;;;;;;8.19;53.33;98465.75;8408079;28;20242;-65
2022/02/02 21:15:57;;;;;;;19.57;8.90;;;;;;;8.17;53.81;98470.09;8400862;28;20249;-64
2022/02/02 21:20:10;;;;;;;23.43;10.27;;;;;;;8.19;53.30;98470.06;8401077;28;20432;-64
2022/02/02 21:24:45;;;;;;;25.53;10.87;;;;;;;8.15;53.08;98469.28;8400586;28;20227;-64
2022/02/02 21:28:48;;;;;;;24.77;8.20;;;;;;;8.10;53.39;98465.97;8427709;28;20214;-64
2022/02/02 21:32:51;;;;;;;21.17;7.47;;;;;;;8.07;53.98;98463.47;8433679;28;20238;-64
2022/02/02 21:36:55;;;;;;;18.53;6.27;;;;;;;8.09;53.63;98476.34;8433911;28;20237;-64
2022/02/02 21:41:00;;;;;;;17.33;6.33;;;;;;;8.08;53.99;98474.66;8433676;28;20231;-65
2022/02/02 21:45:03;;;;;;;17.03;6.50;;;;;;;8.02;53.93;98479.06;8433435;28;20521;-65
2022/02/02 21:49:08;;;;;;;16.10;6.37;;;;;;;8.08;53.67;98474.66;8433333;28;20230;-64
2022/02/02 21:53:11;;;;;;;17.80;6.87;;;;;;;7.93;53.56;98475.91;8422979;28;20241;-64
2022/02/02 21:57:17;;;;;;;17.33;6.20;;;;;;;7.94;53.87;98478.44;8417453;28;20235;-64
2022/02/02 22:01:22;;;;;;;17.20;6.50;;;;;;;7.95;53.77;98476.69;8416215;28;20223;-65
2022/02/02 22:05:25;;;;;;;20.50;6.63;;;;;;;8.02;53.64;98485.97;8415825;28;20226;-64
2022/02/02 22:09:27;;;;;;;17.13;7.03;;;;;;;8.01;53.70;98487.72;8415670;28;20223;-64
2022/02/02 22:13:38;;;;;;;17.27;6.70;;;;;;;7.91;53.54;98499.13;8415671;28;20218;-64
2022/02/02 22:17:41;;;;;;;20.50;7.37;;;;;;;7.90;53.63;98502.63;8419757;28;20231;-64
2022/02/02 22:21:44;;;;;;;22.33;7.33;;;;;;;7.81;53.85;98511.41;8416149;28;20243;-64
2022/02/02 22:25:50;;;;;;;16.83;6.80;;;;;;;7.85;53.52;98503.63;8416078;28;20246;-64
2022/02/02 22:29:54;;;;;;;19.83;7.27;;;;;;;7.74;53.58;98511.59;8407714;28;20241;-64
2022/02/02 22:33:57;;;;;;;21.03;7.77;;;;;;;7.79;53.50;98513.19;8415886;28;20238;-64
2022/02/02 22:38:00;;;;;;;23.47;8.00;;;;;;;7.74;53.72;98517.59;8414432;28;20302;-64
2022/02/02 22:42:03;;;;;;;21.97;7.63;;;;;;;7.73;53.76;98520.22;8415340;28;20564;-64
2022/02/02 22:46:08;;;;;;;23.83;8.20;;;;;;;7.71;53.47;98524.56;8415562;28;20243;-64
2022/02/02 22:50:11;;;;;;;20.93;8.27;;;;;;;7.74;53.36;98525.34;8415393;28;20234;-64
2022/02/02 22:54:15;;;;;;;23.17;8.00;;;;;;;7.60;53.52;98511.94;8431996;28;20238;-64
2022/02/02 22:58:22;;;;;;;17.93;6.87;;;;;;;7.67;53.56;98518.63;8448678;28;20548;-64
2022/02/02 23:02:45;;;;;;;23.90;7.90;;;;;;;7.61;53.70;98517.03;8448387;28;20230;-64
2022/02/02 23:06:48;;;;;;;17.20;7.20;;;;;;;7.60;53.88;98514.50;8414619;28;20230;-64
2022/02/02 23:10:51;;;;;;;19.30;6.73;;;;;;;7.60;53.48;98506.78;8414635;28;20432;-64
2022/02/02 23:14:56;;;;;;;18.17;7.13;;;;;;;7.53;53.68;98510.38;8414555;28;20237;-64
2022/02/02 23:19:00;;;;;;;20.07;7.23;;;;;;;7.44;53.59;98514.00;8414470;28;20230;-64
2022/02/02 23:23:04;;;;;;;19.57;6.90;;;;;;;7.45;53.57;98510.56;8414620;28;20422;-65
2022/02/02 23:27:07;;;;;;;17.97;6.67;;;;;;;7.41;53.04;98514.09;8414528;28;20241;-64
2022/02/02 23:31:13;;;;;;;15.13;6.53;;;;;;;7.35;52.72;98515.09;8414343;28;20242;-64
2022/02/02 23:35:17;;;;;;;19.47;7.13;;;;;;;7.29;52.51;98527.25;8414804;28;20422;-64
2022/02/02 23:39:21;;;;;;;21.23;7.23;;;;;;;7.20;53.38;98525.72;8414330;28;20230;-64
2022/02/02 23:43:25;;;;;;;21.60;9.60;;;;;;;7.03;54.38;98523.50;8413931;28;20231;-64
2022/02/02 23:47:30;;;;;;;23.10;10.07;;;;;;;7.21;53.81;98522.25;8414241;28;20246;-64
2022/02/02 23:51:38;;;;;;;22.10;10.57;;;;;;;7.25;53.72;98531.59;8413815;28;20233;-65
2022/02/02 23:55:45;;;;;;;21.13;10.77;;;;;;;7.13;53.77;98534.47;8440442;28;20428;-64
2022/02/02 23:59:57;;;;;;;26.80;10.83;;;;;;;7.20;53.77;98533.47;8447309;28;20229;-64
